Vasiliy Bozhenko — URHP — position and weather

sailwx.info

Track history (hours):
 
Tides and Currents Weather Stations Pressure Air Temp Water Temp Dewpoint Dewpoint Depression Visibility Wind Speed Wind Dir Waves Ship Positions

Vasiliy Bozhenko

Last reported at 2015-Jun-27 17:23 UTC. Time now 2015-Jul-02 23:08 UTC.
Position N 40°58' E 028°55'.

Length 114 m; draft 3.8 m.

Type: Cargo ship. MMSI: 272085000.

Date/timePositionNaut miles runAvg speedWind from/ knotsBaromVisibWave heightAir tempDewpointWater temp
2015-Jun-27 17:23N 40°58' E 028°55'1 0.3
2015-Jun-27 15:22N 40°59' E 028°55'0 0.0
2015-Jun-27 14:34N 40°59' E 028°55'1 1.4
2015-Jun-27 13:33N 40°58' E 028°57'  
2015-Jun-25 01:16N 46°35' E 031°15'12 7.2
2015-Jun-24 23:32N 46°35' E 031°33'7 7.6
2015-Jun-24 22:33N 46°36' E 031°44'7 7.5
2015-Jun-24 21:33N 46°34' E 031°54'7 7.5
2015-Jun-24 20:34N 46°32' E 032°05'148 3.0
2015-Jun-22 19:33N 47°53' E 035°07'0 0.0
2015-Jun-22 18:33N 47°53' E 035°07'0 0.5
2015-Jun-22 17:33N 47°54' E 035°07'  
Track history (hours):
 
Tides and Currents Weather Stations Pressure Air Temp Water Temp Dewpoint Dewpoint Depression Visibility Wind Speed Wind Dir Waves Ship Positions

Vasiliy Bozhenko

Last reported at 2015-Jun-27 17:23 UTC. Time now 2015-Jul-02 23:08 UTC.
Position N 40°58' E 028°55'.

Length 114 m; draft 3.8 m.

Type: Cargo ship. MMSI: 272085000.

Date/timePositionNaut miles runAvg speedWind from/ knotsBaromVisibWave heightAir tempDewpointWater temp
2015-Jun-27 17:23N 40°58' E 028°55'1 0.3
2015-Jun-27 15:22N 40°59' E 028°55'0 0.0
2015-Jun-27 14:34N 40°59' E 028°55'1 1.4
2015-Jun-27 13:33N 40°58' E 028°57'  
2015-Jun-25 01:16N 46°35' E 031°15'12 7.2
2015-Jun-24 23:32N 46°35' E 031°33'7 7.6
2015-Jun-24 22:33N 46°36' E 031°44'7 7.5
2015-Jun-24 21:33N 46°34' E 031°54'7 7.5
2015-Jun-24 20:34N 46°32' E 032°05'148 3.0
2015-Jun-22 19:33N 47°53' E 035°07'0 0.0
2015-Jun-22 18:33N 47°53' E 035°07'0 0.5
2015-Jun-22 17:33N 47°54' E 035°07'  

Dump ship's entire track history